Oxford, Indiana
Current Conditions -  °F | °C
As of 9:54 PM on Monday 20 Oct 2014 (Local Time) from KLAF Reporting Station
Clear Clear  
Wind Chill: 52°   Ceiling: Unl
Heat Index: 52°   Visibility: 10mi
Dew Point: 46°   Wind: 7mph
Humidity: 80%   Direction: 10°N
Pressure: 29.95"   Gusts: NA
Location:  40.52°N, 87.25°W
Report Text: KLAF 210154Z AUTO 01006KT 10SM CLR 11/08 A2995 RMK AO2 SLP144 T01110078 TSNO
Loading
Personal Weather Stations






























Interactive Weather Map New forecast layout! Learn more

10-Day Weather Forecast

Advertisements
Track Severe Weather on mobile